TimeCDT,TemperatureF,Dew PointF,Humidity,Sea Level PressureIn,VisibilityMPH,Wind Direction,Wind SpeedMPH,Gust SpeedMPH,PrecipitationIn,Events,Conditions,WindDirDegrees,DateUTC
12:53 AM,81.0,66.9,62,29.93,10.0,SSE,12.7,-,N/A,,Clear,150,2013-06-21 05:53:00
1:53 AM,80.1,66.0,62,29.92,10.0,South,15.0,-,N/A,,Partly Cloudy,170,2013-06-21 06:53:00
2:53 AM,79.0,64.9,62,29.90,10.0,South,11.5,-,N/A,,Clear,170,2013-06-21 07:53:00
3:53 AM,77.0,64.9,66,29.89,10.0,South,10.4,-,N/A,,Clear,170,2013-06-21 08:53:00
4:53 AM,77.0,64.9,66,29.90,10.0,SSE,11.5,-,N/A,,Clear,160,2013-06-21 09:53:00
5:53 AM,75.9,64.9,69,29.91,10.0,SSE,11.5,-,N/A,,Clear,160,2013-06-21 10:53:00
6:53 AM,75.0,64.9,71,29.94,10.0,South,8.1,-,N/A,,Clear,170,2013-06-21 11:53:00
7:53 AM,77.0,66.0,69,29.95,10.0,SSE,10.4,-,N/A,,Clear,160,2013-06-21 12:53:00
8:53 AM,82.9,66.9,58,29.96,10.0,South,16.1,25.3,N/A,,Clear,180,2013-06-21 13:53:00
9:53 AM,86.0,68.0,55,29.96,10.0,South,16.1,19.6,N/A,,Clear,180,2013-06-21 14:53:00
10:53 AM,88.0,69.1,53,29.97,10.0,South,11.5,-,N/A,,Clear,190,2013-06-21 15:53:00
11:53 AM,91.0,70.0,50,29.98,10.0,SSW,10.4,17.3,N/A,,Clear,200,2013-06-21 16:53:00
12:53 PM,91.9,69.1,47,29.96,10.0,South,15.0,21.9,N/A,,Partly Cloudy,190,2013-06-21 17:53:00
1:53 PM,93.0,68.0,44,29.94,10.0,South,16.1,25.3,N/A,,Scattered Clouds,190,2013-06-21 18:53:00
2:53 PM,96.1,68.0,40,29.93,10.0,South,17.3,26.5,N/A,,Scattered Clouds,170,2013-06-21 19:53:00
3:53 PM,98.1,66.0,35,29.91,10.0,South,18.4,28.8,N/A,,Clear,180,2013-06-21 20:53:00
4:53 PM,97.0,64.9,35,29.89,10.0,South,17.3,28.8,N/A,,Partly Cloudy,170,2013-06-21 21:53:00
5:53 PM,96.1,61.0,31,29.88,10.0,South,17.3,26.5,N/A,,Clear,170,2013-06-21 22:53:00
6:53 PM,93.9,63.0,36,29.86,10.0,SSE,21.9,28.8,N/A,,Clear,160,2013-06-21 23:53:00
7:53 PM,91.0,64.9,42,29.87,10.0,SSE,18.4,26.5,N/A,,Clear,150,2013-06-22 00:53:00
8:53 PM,88.0,66.0,48,29.87,10.0,SE,13.8,27.6,N/A,,Clear,140,2013-06-22 01:53:00
9:53 PM,86.0,66.0,51,29.88,10.0,SSE,13.8,-,N/A,,Clear,150,2013-06-22 02:53:00
10:53 PM,84.9,64.9,51,29.89,10.0,SSE,16.1,-,N/A,,Clear,150,2013-06-22 03:53:00
11:53 PM,84.0,63.0,49,29.89,10.0,SSE,15.0,23.0,N/A,,Clear,160,2013-06-22 04:53:00